Wetterdaten: aktuell Samstag, 28.05.2022 17:45
Datum Zeit Temp. A. Feuchte A. Luftdruck Regen Wind Richtung Richtung Sonnenschein UV Windben
28.05.2022 17:45 16,6 C 45 % 1015,8 hPa 0,0 l/m 9,8 km/h W 259 10 min 1,0 UV-I 17,7 km/h
28.05.2022 16:45 16,2 C 47 % 1016,5 hPa 0,0 l/m 9,2 km/h W-SW 250 35 min 2,6 UV-I 17,7 km/h
28.05.2022 15:45 14,9 C 54 % 1017,0 hPa 0,0 l/m 9,0 km/h W 273 15 min 1,7 UV-I 17,7 km/h
28.05.2022 14:45 16,5 C 47 % 1017,4 hPa 0,0 l/m 4,9 km/h N-NW 334 25 min 4,1 UV-I 12,9 km/h
28.05.2022 13:45 15,8 C 49 % 1017,9 hPa 0,0 l/m 8,0 km/h NW 315 35 min 3,0 UV-I 16,1 km/h
28.05.2022 12:40 14,5 C 54 % 1018,6 hPa 0,0 l/m 3,0 km/h W-NW 300 60 min 2,5 UV-I 14,1 km/h
28.05.2022 11:40 14,4 C 57 % 1018,9 hPa 0,0 l/m 9,3 km/h N-NW 330 55 min 4,8 UV-I 17,7 km/h
28.05.2022 10:40 13,3 C 61 % 1019,4 hPa 0,0 l/m 6,8 km/h W-NW 287 25 min 3,4 UV-I 12,9 km/h
28.05.2022 09:40 12,0 C 65 % 1019,4 hPa 0,0 l/m 11,5 km/h NW 325 30 min 2,2 UV-I 20,9 km/h
28.05.2022 08:40 10,8 C 69 % 1019,4 hPa 0,0 l/m 6,4 km/h W-NW 287 0 min 0,9 UV-I 12,9 km/h
28.05.2022 07:40 10,0 C 73 % 1019,4 hPa 0,0 l/m 6,4 km/h NW 315 0 min 0,0 UV-I 14,5 km/h
28.05.2022 06:40 9,2 C 76 % 1018,9 hPa 0,0 l/m 1,6 km/h NW 315 0 min 0,0 UV-I 4,8 km/h
28.05.2022 05:40 10,1 C 73 % 1018,7 hPa 0,0 l/m 6,4 km/h W 270 0 min 0,0 UV-I 12,9 km/h
28.05.2022 04:40 10,8 C 76 % 1018,4 hPa 0,0 l/m 3,2 km/h NW 315 0 min 0,0 UV-I 6,4 km/h
28.05.2022 03:40 11,5 C 86 % 1018,5 hPa 0,2 l/m 1,6 km/h NW 315 0 min 0,0 UV-I 6,4 km/h
28.05.2022 02:40 11,9 C 86 % 1018,7 hPa 0,0 l/m 1,6 km/h N-NW 337 0 min 0,0 UV-I 3,2 km/h
28.05.2022 01:40 12,8 C 80 % 1018,8 hPa 0,0 l/m 3,2 km/h W 270 0 min 0,0 UV-I 8,0 km/h
28.05.2022 00:40 12,3 C 82 % 1019,1 hPa 0,0 l/m 1,6 km/h NW 315 0 min 0,0 UV-I 4,8 km/h
28.05.2022 00:00 12,8 C 81 % 1018,8 hPa 0,0 l/m 3,2 km/h W-NW 292 0 min 0,0 UV-I 11,3 km/h
_ Min-Zeit 06:45 17:00 17:45 - 02:45 - - - - 02:45
Minimum _ 9,2 C 43 % 1015,8 hPa - 0,0 km/h - - - - 3,2 km/h
_ Max-Zeit 17:45 03:30 08:10 03:00 11:55 - - 16:55 13:30 11:55
Maximum _ 16,6 C 87 % 1019,5 hPa 0,2 l/m 12,3 km/h
NW
- - 5 min 5,4 UV-I 24,1 km/h
W-NW
Durchschnitt _ 12,8 C 66 % 1018,5 hPa #0,2 l/m 6,1 km/h NW - #4:55 h 2,5 UV-I 13,0 km/h